createdAt,value
2022-09-21T00:03:28.694Z,101912.75
2022-09-21T00:07:30.069Z,101909.53
2022-09-21T00:11:33.185Z,101915.81
2022-09-21T00:15:35.123Z,101924.97
2022-09-21T00:19:36.782Z,101923.28
2022-09-21T00:23:38.740Z,101926.06
2022-09-21T00:27:40.184Z,101936.16
2022-09-21T00:31:41.690Z,101932.19
2022-09-21T00:35:43.162Z,101929.53
2022-09-21T00:39:44.715Z,101929.38
2022-09-21T00:43:49.217Z,101936.81
2022-09-21T00:47:52.526Z,101931.84
2022-09-21T00:51:54.956Z,101927.25
2022-09-21T00:55:59.220Z,101925.53
2022-09-21T01:00:04.994Z,101936.06
2022-09-21T01:04:07.166Z,101936.72
2022-09-21T01:08:13.088Z,101938.69
2022-09-21T01:12:35.625Z,101943.69
2022-09-21T01:16:56.377Z,101945.09
2022-09-21T01:21:23.412Z,101952.28
2022-09-21T01:25:37.537Z,101950.03
2022-09-21T01:29:53.015Z,101954.50
2022-09-21T01:34:01.613Z,101953.97
2022-09-21T01:38:10.822Z,101956.63
2022-09-21T01:42:14.150Z,101961.28
2022-09-21T01:46:19.434Z,101960.22
2022-09-21T01:50:21.272Z,101961.00
2022-09-21T01:54:28.558Z,101959.16
2022-09-21T01:58:52.477Z,101961.78
2022-09-21T02:03:05.882Z,101959.88
2022-09-21T02:07:08.469Z,101962.19
2022-09-21T02:11:13.427Z,101956.03
2022-09-21T02:15:15.128Z,101945.91
2022-09-21T02:19:26.723Z,101959.91
2022-09-21T02:23:40.765Z,101953.53
2022-09-21T02:27:59.723Z,101951.94
2022-09-21T02:32:51.372Z,101942.22
2022-09-21T02:37:10.347Z,101959.97
2022-09-21T02:41:25.102Z,101957.03
2022-09-21T02:45:32.908Z,101958.34
2022-09-21T02:49:39.054Z,101959.38
2022-09-21T02:53:42.054Z,101963.28
2022-09-21T02:57:45.794Z,101964.34
2022-09-21T03:01:47.382Z,101969.16
2022-09-21T03:05:51.068Z,101979.00
2022-09-21T03:09:52.542Z,101993.00
2022-09-21T03:13:54.645Z,101991.56
2022-09-21T03:17:56.193Z,101993.09
2022-09-21T03:21:57.740Z,101988.00
2022-09-21T03:25:59.167Z,101994.31
2022-09-21T03:30:02.331Z,101993.28
2022-09-21T03:34:04.124Z,101994.31
2022-09-21T03:38:05.876Z,101989.81
2022-09-21T03:42:07.435Z,101995.63
2022-09-21T03:46:08.954Z,102001.78
2022-09-21T03:50:11.203Z,102000.53
2022-09-21T03:54:12.707Z,101992.75
2022-09-21T03:58:14.631Z,101991.81
2022-09-21T04:02:16.975Z,101996.25
2022-09-21T04:06:18.582Z,101992.66
2022-09-21T04:10:24.203Z,101997.78
2022-09-21T04:14:25.665Z,101999.50
2022-09-21T04:18:27.118Z,102002.22
2022-09-21T04:22:28.611Z,102001.00
2022-09-21T04:26:32.654Z,102002.09
2022-09-21T04:30:37.736Z,102002.13
2022-09-21T04:34:39.591Z,102006.94
2022-09-21T04:38:41.026Z,102000.41
2022-09-21T04:42:42.547Z,101998.22
2022-09-21T04:46:44.129Z,102004.47
2022-09-21T04:50:49.618Z,102001.56
2022-09-21T04:54:51.084Z,102006.31
2022-09-21T04:58:52.451Z,102013.25
2022-09-21T05:02:53.895Z,102018.47
2022-09-21T05:06:55.321Z,102015.84
2022-09-21T05:10:56.708Z,102023.16
2022-09-21T05:14:58.164Z,102024.50
2022-09-21T05:18:59.571Z,102032.16
2022-09-21T05:23:02.272Z,102040.53
2022-09-21T05:27:03.834Z,102047.38
2022-09-21T05:31:18.464Z,102057.88
2022-09-21T05:35:45.861Z,102064.13
2022-09-21T05:39:47.515Z,102064.19
2022-09-21T05:43:49.192Z,102055.69
2022-09-21T05:48:01.029Z,102049.66
2022-09-21T05:52:08.482Z,102054.69
2022-09-21T05:56:48.441Z,102061.84
2022-09-21T06:01:06.655Z,102056.03
2022-09-21T06:05:12.759Z,102059.91
2022-09-21T06:09:14.123Z,102052.97
2022-09-21T06:13:15.848Z,102054.09
2022-09-21T06:17:17.268Z,102056.44
2022-09-21T06:21:18.715Z,102052.69
2022-09-21T06:25:20.410Z,102058.44
2022-09-21T06:29:23.613Z,102065.03
2022-09-21T06:33:25.461Z,102059.88
2022-09-21T06:37:26.860Z,102067.56
2022-09-21T06:41:28.320Z,102076.31
2022-09-21T06:45:31.108Z,102072.16
2022-09-21T06:49:32.499Z,102073.47
2022-09-21T06:53:34.399Z,102079.81
2022-09-21T06:57:38.775Z,102089.56
2022-09-21T07:01:40.515Z,102084.75
2022-09-21T07:05:45.137Z,102098.88
2022-09-21T07:14:08.156Z,102103.44
2022-09-21T07:18:14.089Z,102105.72
2022-09-21T07:22:15.504Z,102099.06
2022-09-21T07:26:16.992Z,102107.34
2022-09-21T07:30:18.463Z,102106.41
2022-09-21T07:34:20.027Z,102100.38
2022-09-21T07:38:21.449Z,102105.91
2022-09-21T07:42:24.130Z,102107.38
2022-09-21T07:46:25.634Z,102112.28
2022-09-21T07:50:27.059Z,102097.78
2022-09-21T07:54:28.499Z,102103.47
2022-09-21T07:58:48.691Z,102106.84
2022-09-21T08:02:50.193Z,102117.16
2022-09-21T08:06:51.693Z,102106.88
2022-09-21T08:10:54.510Z,102108.34
2022-09-21T08:14:55.935Z,102115.00
2022-09-21T08:18:57.705Z,102105.88
2022-09-21T08:23:00.062Z,102113.13
2022-09-21T08:27:01.515Z,102121.94
2022-09-21T08:31:05.868Z,102120.81
2022-09-21T08:35:08.687Z,102122.50
2022-09-21T08:39:10.253Z,102115.78
2022-09-21T08:43:16.633Z,102119.25
2022-09-21T08:47:39.599Z,102122.88
2022-09-21T08:51:57.673Z,102119.97
2022-09-21T08:55:59.354Z,102129.09
2022-09-21T09:00:02.407Z,102122.09
2022-09-21T09:04:22.102Z,102128.00
2022-09-21T09:08:42.770Z,102128.97
2022-09-21T09:13:05.979Z,102126.44
2022-09-21T09:17:25.429Z,102137.69
2022-09-21T09:21:40.205Z,102135.78
2022-09-21T09:25:43.404Z,102134.28
2022-09-21T09:30:04.348Z,102133.16
2022-09-21T09:34:29.358Z,102136.75
2022-09-21T09:38:39.597Z,102128.97
2022-09-21T09:43:07.812Z,102135.25
2022-09-21T09:47:28.181Z,102139.88
2022-09-21T09:51:29.802Z,102140.09
2022-09-21T09:55:40.595Z,102142.72
2022-09-21T09:59:53.366Z,102138.91
2022-09-21T10:04:08.754Z,102133.03
2022-09-21T10:08:44.421Z,102128.88
2022-09-21T10:12:47.521Z,102133.41
2022-09-21T10:16:51.975Z,102137.88
2022-09-21T10:21:00.114Z,102123.28
2022-09-21T10:25:06.005Z,102129.91
2022-09-21T10:29:18.707Z,102126.81
2022-09-21T10:33:22.212Z,102125.31
2022-09-21T10:37:29.403Z,102117.03
2022-09-21T10:41:30.957Z,102118.47
2022-09-21T10:45:37.082Z,102112.88
2022-09-21T10:49:48.209Z,102113.88
2022-09-21T10:53:53.770Z,102115.25
2022-09-21T10:57:57.041Z,102112.22
2022-09-21T11:02:00.691Z,102100.19
2022-09-21T11:06:16.745Z,102104.03
2022-09-21T11:10:34.644Z,102100.47
2022-09-21T11:14:51.415Z,102101.84
2022-09-21T11:18:58.766Z,102109.03
2022-09-21T11:23:10.919Z,102099.25
2022-09-21T11:27:22.655Z,102107.88
2022-09-21T11:31:37.207Z,102099.69
2022-09-21T11:35:53.253Z,102099.34
2022-09-21T11:40:12.895Z,102092.59
2022-09-21T11:44:32.224Z,102092.47
2022-09-21T11:48:40.160Z,102093.84
2022-09-21T11:52:53.323Z,102080.81
2022-09-21T11:57:22.862Z,102077.19
2022-09-21T12:01:36.694Z,102082.75
2022-09-21T12:06:11.927Z,102085.31
2022-09-21T12:10:39.945Z,102077.19
2022-09-21T12:14:59.814Z,102063.56
2022-09-21T12:19:33.716Z,102061.47
2022-09-21T12:23:45.140Z,102072.63
2022-09-21T12:27:51.969Z,102065.59
2022-09-21T12:32:01.639Z,102071.63
2022-09-21T12:36:25.668Z,102072.66
2022-09-21T12:40:48.065Z,102063.69
2022-09-21T12:44:58.486Z,102069.22
2022-09-21T12:49:05.654Z,102068.78
2022-09-21T12:53:14.442Z,102054.91
2022-09-21T12:57:45.463Z,102057.88
2022-09-21T13:01:57.178Z,102056.06
2022-09-21T13:06:37.511Z,102051.94
2022-09-21T13:10:54.703Z,102053.72
2022-09-21T13:15:04.890Z,102050.72
2022-09-21T13:19:24.534Z,102059.47
2022-09-21T13:23:29.236Z,102049.59
2022-09-21T13:28:09.335Z,102047.06
2022-09-21T13:32:14.020Z,102051.09
2022-09-21T13:36:36.220Z,102058.41
2022-09-21T13:40:37.857Z,102043.53
2022-09-21T13:44:42.277Z,102039.31
2022-09-21T13:48:43.774Z,102029.50
2022-09-21T13:52:51.944Z,102033.41
2022-09-21T13:57:00.465Z,102024.97
2022-09-21T14:01:29.501Z,102024.25
2022-09-21T14:05:44.203Z,102032.75
2022-09-21T14:10:01.436Z,102031.00
2022-09-21T14:14:05.687Z,102036.44
2022-09-21T14:18:35.734Z,102035.69
2022-09-21T14:22:38.414Z,102026.78
2022-09-21T14:26:39.788Z,102016.88
2022-09-21T14:30:50.288Z,102019.16
2022-09-21T14:34:57.114Z,102013.22
2022-09-21T14:39:03.260Z,102005.13
2022-09-21T14:43:20.877Z,102006.81
2022-09-21T14:47:51.979Z,102002.44
2022-09-21T14:52:32.574Z,102000.03
2022-09-21T14:56:39.079Z,102004.53
2022-09-21T15:00:43.494Z,101992.78
2022-09-21T15:05:06.610Z,101998.25
2022-09-21T15:09:46.098Z,102000.53
2022-09-21T15:14:12.157Z,101992.03
2022-09-21T15:18:20.124Z,101987.34
2022-09-21T15:22:22.527Z,101987.09
2022-09-21T15:26:26.799Z,101978.84
2022-09-21T15:30:33.087Z,101966.22
2022-09-21T15:34:34.553Z,101979.84
2022-09-21T15:38:38.550Z,101971.00
2022-09-21T15:43:04.624Z,101978.75
2022-09-21T15:47:13.049Z,101982.56
2022-09-21T15:51:33.690Z,101978.97
2022-09-21T15:55:35.335Z,101983.25
2022-09-21T15:59:37.012Z,101975.13
2022-09-21T16:03:39.853Z,101983.34
2022-09-21T16:07:41.646Z,101977.91
2022-09-21T16:11:43.087Z,101984.63
2022-09-21T16:16:00.559Z,101988.34
2022-09-21T16:20:15.599Z,101990.72
2022-09-21T16:24:19.472Z,101993.75
2022-09-21T16:28:21.426Z,101994.31
2022-09-21T16:32:32.834Z,101993.66
2022-09-21T16:36:37.936Z,101997.19
2022-09-21T16:40:39.643Z,101997.69
2022-09-21T16:44:47.005Z,101994.50
2022-09-21T16:48:48.905Z,101996.47
2022-09-21T16:52:52.336Z,101993.34
2022-09-21T16:57:06.316Z,101998.97
2022-09-21T17:01:11.448Z,101988.53
2022-09-21T17:05:21.532Z,102004.31
2022-09-21T17:09:37.715Z,102004.31
2022-09-21T17:13:54.214Z,101998.19
2022-09-21T17:17:58.070Z,102006.84
2022-09-21T17:21:59.721Z,102008.38
2022-09-21T17:26:22.053Z,102009.53
2022-09-21T17:30:25.104Z,102011.88
2022-09-21T17:34:28.746Z,102014.78
2022-09-21T17:38:30.142Z,102010.63
2022-09-21T17:42:38.087Z,102017.72
2022-09-21T17:46:51.363Z,102019.66
2022-09-21T17:50:53.034Z,102009.69
2022-09-21T17:54:54.763Z,102015.13
2022-09-21T17:59:02.671Z,102024.50
2022-09-21T18:03:04.675Z,102022.53
2022-09-21T18:07:06.585Z,102029.84
2022-09-21T18:11:36.245Z,102018.00
2022-09-21T18:15:49.442Z,102024.88
2022-09-21T18:20:29.389Z,102024.69
2022-09-21T18:24:46.859Z,102026.59
2022-09-21T18:28:56.197Z,102026.56
2022-09-21T18:33:13.033Z,102029.69
2022-09-21T18:37:38.094Z,102023.53
2022-09-21T18:42:10.033Z,102029.78
2022-09-21T18:46:16.920Z,102032.63
2022-09-21T18:50:31.751Z,102040.56
2022-09-21T18:54:33.532Z,102040.34
2022-09-21T18:58:42.770Z,102033.56
2022-09-21T19:03:12.337Z,102039.59
2022-09-21T19:07:31.480Z,102037.06
2022-09-21T19:12:14.135Z,102030.25
2022-09-21T19:16:34.916Z,102028.66
2022-09-21T19:21:16.278Z,102034.56
2022-09-21T19:25:35.763Z,102038.47
2022-09-21T19:30:12.532Z,102034.56
2022-09-21T19:34:26.842Z,102038.38
2022-09-21T19:38:31.628Z,102028.94
2022-09-21T19:42:52.342Z,102039.06
2022-09-21T19:47:05.860Z,102037.44
2022-09-21T19:51:16.313Z,102038.06
2022-09-21T19:55:43.401Z,102042.81
2022-09-21T19:59:45.452Z,102042.31
2022-09-21T20:03:48.651Z,102051.28
2022-09-21T20:07:58.050Z,102039.53
2022-09-21T20:12:27.096Z,102049.81
2022-09-21T20:16:46.593Z,102045.56
2022-09-21T20:20:48.372Z,102045.91
2022-09-21T20:24:56.709Z,102043.47
2022-09-21T20:28:58.607Z,102047.06
2022-09-21T20:33:13.726Z,102052.28
2022-09-21T20:37:15.318Z,102046.25
2022-09-21T20:41:18.954Z,102039.06
2022-09-21T20:45:21.077Z,102043.63
2022-09-21T20:49:22.477Z,102050.13
2022-09-21T20:53:24.656Z,102034.66
2022-09-21T20:57:26.048Z,102040.84
2022-09-21T21:01:27.607Z,102043.97
2022-09-21T21:05:29.158Z,102048.53
2022-09-21T21:09:30.939Z,102056.97
2022-09-21T21:13:33.219Z,102052.44
2022-09-21T21:17:36.476Z,102054.88
2022-09-21T21:21:38.666Z,102068.06
2022-09-21T21:25:40.087Z,102055.06
2022-09-21T21:29:42.303Z,102056.16
2022-09-21T21:33:43.824Z,102053.41
2022-09-21T21:37:45.351Z,102056.50
2022-09-21T21:41:47.328Z,102051.75
2022-09-21T21:45:57.680Z,102046.25
2022-09-21T21:50:03.741Z,102049.50
2022-09-21T21:54:05.410Z,102046.88
2022-09-21T21:58:06.942Z,102054.84
2022-09-21T22:02:08.356Z,102045.53
2022-09-21T22:06:10.919Z,102044.25
2022-09-21T22:10:12.906Z,102046.53
2022-09-21T22:14:14.352Z,102038.22
2022-09-21T22:18:19.465Z,102040.03
2022-09-21T22:22:21.081Z,102037.75
2022-09-21T22:26:23.315Z,102034.19
2022-09-21T22:30:24.737Z,102040.03
2022-09-21T22:34:26.210Z,102039.22
2022-09-21T22:38:29.941Z,102036.78
2022-09-21T22:42:31.774Z,102042.47
2022-09-21T22:46:34.130Z,102029.13
2022-09-21T22:50:35.552Z,102037.09
2022-09-21T22:54:36.921Z,102047.03
2022-09-21T22:58:40.778Z,102037.41
2022-09-21T23:02:43.526Z,102039.53
2022-09-21T23:06:45.252Z,102035.94
2022-09-21T23:10:46.658Z,102046.06
2022-09-21T23:14:48.047Z,102036.44
2022-09-21T23:18:50.522Z,102038.22
2022-09-21T23:22:52.049Z,102042.75
2022-09-21T23:26:53.573Z,102042.00
2022-09-21T23:31:00.333Z,102037.09
2022-09-21T23:35:01.887Z,102036.44
2022-09-21T23:39:05.435Z,102045.91
2022-09-21T23:43:06.878Z,102038.72
2022-09-21T23:47:08.392Z,102036.09
2022-09-21T23:51:10.598Z,102032.81
2022-09-21T23:55:11.982Z,102041.44
2022-09-21T23:59:13.393Z,102036.91
